Fecha, hora, temperatura, viento dirección y velocidad, humedad y presión.

  • 19-03-2019 23:00:00 | 8.80°C | Calma |0.00 km/h | 97.00% | 0.00 hPa
  • 19-03-2019 22:00:00 | 8.80°C | Calma |0.00 km/h | 96.00% | 0.00 hPa
  • 19-03-2019 21:00:00 | 9.00°C | Calma |0.00 km/h | 96.00% | 0.00 hPa
  • 19-03-2019 20:00:00 | 9.20°C | Calma |0.00 km/h | 94.00% | 0.00 hPa
  • 19-03-2019 19:00:00 | 9.50°C | Sudoeste |3.00 km/h | 91.00% | 0.00 hPa
  • 19-03-2019 18:00:00 | 9.70°C | Noroeste |4.00 km/h | 90.00% | 0.00 hPa
  • 19-03-2019 17:00:00 | 9.60°C | Calma |0.00 km/h | 93.00% | 0.00 hPa
  • 19-03-2019 16:00:00 | 10.00°C | Calma |0.00 km/h | 89.00% | 0.00 hPa
  • 19-03-2019 15:00:00 | 10.30°C | Sudoeste |2.00 km/h | 83.00% | 0.00 hPa
  • 19-03-2019 14:00:00 | 10.30°C | Nordeste |2.00 km/h | 89.00% | 0.00 hPa
  • 19-03-2019 13:00:00 | 10.50°C | Sudoeste |4.00 km/h | 84.00% | 0.00 hPa
  • 19-03-2019 12:00:00 | 9.30°C | Oeste |4.00 km/h | 95.00% | 0.00 hPa
  • 19-03-2019 11:00:00 | 8.80°C | Oeste |2.00 km/h | 95.00% | 0.00 hPa
  • 19-03-2019 10:00:00 | 8.20°C | Calma |0.00 km/h | 97.00% | 0.00 hPa
  • 19-03-2019 09:00:00 | 7.60°C | Calma |0.00 km/h | 97.00% | 0.00 hPa
  • 19-03-2019 08:00:00 | 7.50°C | Calma |0.00 km/h | 97.00% | 0.00 hPa
  • 19-03-2019 07:00:00 | 7.70°C | Nordeste |2.00 km/h | 96.00% | 0.00 hPa
  • 19-03-2019 06:00:00 | 7.80°C | Calma |0.00 km/h | 93.00% | 0.00 hPa
  • 19-03-2019 05:00:00 | 7.80°C | Calma |0.00 km/h | 93.00% | 0.00 hPa
  • 19-03-2019 04:00:00 | 7.90°C | Calma |0.00 km/h | 92.00% | 0.00 hPa
  • 19-03-2019 03:00:00 | 8.00°C | Calma |0.00 km/h | 91.00% | 0.00 hPa
  • 19-03-2019 02:00:00 | 8.20°C | Calma |0.00 km/h | 89.00% | 0.00 hPa
  • 19-03-2019 01:00:00 | 8.50°C | Calma |0.00 km/h | 86.00% | 0.00 hPa
  • 19-03-2019 00:00:00 | 8.80°C | Calma |0.00 km/h | 84.00% | 0.00 hPa
    • diseño web asturias Información sobre el estado de las mareas, altura de la marejada, temperatura del agua y otros datos de Gijón en Asturias.

      Surf Gijón